createdAt,value
2023-04-08T00:01:59.426Z,9.93
2023-04-08T00:04:27.322Z,8.70
2023-04-08T00:06:56.234Z,9.77
2023-04-08T00:09:24.029Z,8.40
2023-04-08T00:11:52.978Z,9.07
2023-04-08T00:14:20.629Z,9.57
2023-04-08T00:16:48.575Z,9.60
2023-04-08T00:19:16.255Z,9.73
2023-04-08T00:21:44.260Z,9.98
2023-04-08T00:24:11.964Z,10.23
2023-04-08T00:26:39.904Z,9.98
2023-04-08T00:29:07.561Z,9.70
2023-04-08T00:31:35.700Z,9.25
2023-04-08T00:34:03.406Z,9.27
2023-04-08T00:36:31.308Z,10.20
2023-04-08T00:38:58.987Z,9.73
2023-04-08T00:41:27.048Z,10.05
2023-04-08T00:43:54.951Z,10.18
2023-04-08T00:46:23.113Z,9.38
2023-04-08T00:48:51.386Z,10.73
2023-04-08T00:51:20.493Z,10.90
2023-04-08T00:53:48.139Z,10.10
2023-04-08T00:56:16.334Z,11.45
2023-04-08T00:58:44.010Z,11.77
2023-04-08T01:01:22.676Z,10.82
2023-04-08T01:04:15.451Z,11.75
2023-04-08T01:07:17.393Z,11.90
2023-04-08T01:09:59.066Z,11.27
2023-04-08T01:12:31.837Z,11.07
2023-04-08T01:15:06.961Z,12.40
2023-04-08T01:17:37.267Z,13.68
2023-04-08T01:20:07.433Z,12.77
2023-04-08T01:22:51.003Z,13.00
2023-04-08T01:25:26.311Z,12.87
2023-04-08T01:27:57.627Z,12.30
2023-04-08T01:30:27.281Z,13.07
2023-04-08T01:32:56.849Z,13.55
2023-04-08T01:35:25.099Z,12.57
2023-04-08T01:37:55.715Z,12.80
2023-04-08T01:40:23.930Z,11.70
2023-04-08T01:42:56.102Z,12.00
2023-04-08T01:45:25.648Z,11.85
2023-04-08T01:47:54.507Z,11.55
2023-04-08T01:50:22.432Z,11.30
2023-04-08T01:52:53.760Z,11.50
2023-04-08T01:55:22.200Z,11.60
2023-04-08T01:57:52.372Z,11.63
2023-04-08T02:00:28.193Z,11.63
2023-04-08T02:02:57.801Z,11.63
2023-04-08T02:05:25.613Z,11.73
2023-04-08T02:07:53.633Z,11.93
2023-04-08T02:10:21.414Z,12.30
2023-04-08T02:12:49.925Z,12.00
2023-04-08T02:15:17.902Z,12.27
2023-04-08T02:17:52.700Z,12.95
2023-04-08T02:20:31.429Z,12.60
2023-04-08T02:23:21.526Z,13.10
2023-04-08T02:25:50.558Z,11.73
2023-04-08T02:28:19.854Z,11.93
2023-04-08T02:30:53.404Z,12.13
2023-04-08T02:35:56.086Z,11.90
2023-04-08T02:38:29.792Z,12.43
2023-04-08T02:40:58.681Z,11.65
2023-04-08T02:43:31.843Z,12.25
2023-04-08T02:46:03.728Z,9.50
2023-04-08T02:48:32.439Z,12.98
2023-04-08T02:51:00.081Z,12.38
2023-04-08T02:53:28.082Z,12.80
2023-04-08T02:55:55.814Z,14.45
2023-04-08T02:58:23.743Z,12.80
2023-04-08T03:00:51.559Z,13.00
2023-04-08T03:03:19.602Z,13.30
2023-04-08T03:05:47.307Z,13.30
2023-04-08T03:08:15.444Z,13.60
2023-04-08T03:10:43.233Z,13.75
2023-04-08T03:13:11.219Z,14.30
2023-04-08T03:15:38.904Z,14.50
2023-04-08T03:18:07.022Z,14.05
2023-04-08T03:20:34.768Z,15.05
2023-04-08T03:23:02.855Z,14.52
2023-04-08T03:25:31.682Z,15.30
2023-04-08T03:27:59.751Z,15.02
2023-04-08T03:30:27.480Z,14.77
2023-04-08T03:32:55.664Z,14.50
2023-04-08T03:35:23.405Z,14.75
2023-04-08T03:37:51.361Z,14.65
2023-04-08T03:40:19.169Z,15.00
2023-04-08T03:42:47.241Z,14.35
2023-04-08T03:45:14.866Z,15.77
2023-04-08T03:47:42.813Z,15.40
2023-04-08T03:50:10.973Z,15.32
2023-04-08T03:52:38.869Z,15.82
2023-04-08T03:55:06.694Z,15.57
2023-04-08T03:57:34.692Z,15.27
2023-04-08T04:00:02.405Z,15.15
2023-04-08T04:02:40.402Z,14.80
2023-04-08T04:05:08.865Z,15.43
2023-04-08T04:07:36.812Z,14.93
2023-04-08T04:10:04.806Z,15.80
2023-04-08T04:12:32.795Z,14.98
2023-04-08T04:15:00.654Z,15.35
2023-04-08T04:17:28.594Z,16.35
2023-04-08T04:19:56.427Z,15.85
2023-04-08T04:22:24.351Z,15.80
2023-04-08T04:24:52.049Z,16.67
2023-04-08T04:27:20.020Z,15.45
2023-04-08T04:29:47.660Z,16.23
2023-04-08T04:32:16.126Z,15.10
2023-04-08T04:34:44.770Z,16.38
2023-04-08T04:37:12.775Z,15.98
2023-04-08T04:39:40.556Z,15.95
2023-04-08T04:42:08.444Z,16.58
2023-04-08T04:44:36.459Z,17.08
2023-04-08T04:47:04.434Z,17.58
2023-04-08T04:49:32.204Z,16.65
2023-04-08T04:52:00.134Z,17.95
2023-04-08T04:54:27.892Z,17.45
2023-04-08T04:56:55.770Z,16.48
2023-04-08T04:59:23.387Z,17.17
2023-04-08T05:01:51.465Z,16.42
2023-04-08T05:04:19.206Z,16.98
2023-04-08T05:06:47.172Z,15.82
2023-04-08T05:09:14.787Z,16.42
2023-04-08T05:11:42.737Z,14.55
2023-04-08T05:14:10.524Z,13.70
2023-04-08T05:16:39.251Z,14.05
2023-04-08T05:19:06.964Z,12.20
2023-04-08T05:21:34.973Z,12.30
2023-04-08T05:24:02.646Z,12.63
2023-04-08T05:26:31.046Z,12.70
2023-04-08T05:28:58.732Z,12.60
2023-04-08T05:31:27.198Z,13.23
2023-04-08T05:33:54.877Z,13.10
2023-04-08T05:36:22.773Z,13.25
2023-04-08T05:38:50.982Z,12.15
2023-04-08T05:41:18.998Z,12.73
2023-04-08T05:43:46.728Z,11.85
2023-04-08T05:46:14.823Z,12.13
2023-04-08T05:48:42.504Z,12.57
2023-04-08T05:51:17.919Z,11.65
2023-04-08T05:53:48.494Z,12.23
2023-04-08T05:56:16.403Z,12.20
2023-04-08T05:58:44.094Z,13.15
2023-04-08T06:01:11.946Z,13.27
2023-04-08T06:03:39.811Z,13.93
2023-04-08T06:06:14.338Z,13.32
2023-04-08T06:08:42.128Z,13.55
2023-04-08T06:11:10.163Z,12.85
2023-04-08T06:13:38.445Z,13.13
2023-04-08T06:16:21.131Z,13.27
2023-04-08T06:18:49.474Z,12.82
2023-04-08T06:21:17.757Z,12.55
2023-04-08T06:23:45.409Z,12.48
2023-04-08T06:26:13.438Z,11.75
2023-04-08T06:28:41.207Z,11.00
2023-04-08T06:31:09.308Z,11.48
2023-04-08T06:33:36.938Z,11.13
2023-04-08T06:36:07.661Z,10.73
2023-04-08T06:38:35.794Z,10.88
2023-04-08T06:41:04.690Z,10.85
2023-04-08T06:43:33.081Z,11.05
2023-04-08T06:46:01.287Z,10.10
2023-04-08T06:48:30.633Z,10.65
2023-04-08T06:51:00.536Z,9.80
2023-04-08T06:53:33.480Z,9.55
2023-04-08T06:56:02.011Z,9.97
2023-04-08T06:58:30.086Z,10.38
2023-04-08T07:00:59.260Z,9.23
2023-04-08T07:03:27.083Z,10.02
2023-04-08T07:05:55.259Z,9.40
2023-04-08T07:08:22.950Z,9.57
2023-04-08T07:10:53.094Z,9.32
2023-04-08T07:13:20.906Z,8.30
2023-04-08T07:15:48.835Z,8.57
2023-04-08T07:18:16.740Z,9.10
2023-04-08T07:20:44.817Z,8.57
2023-04-08T07:23:12.494Z,8.55
2023-04-08T07:25:40.437Z,7.95
2023-04-08T07:28:08.162Z,8.48
2023-04-08T07:30:36.762Z,8.57
2023-04-08T07:33:04.577Z,8.50
2023-04-08T07:35:33.694Z,8.00
2023-04-08T07:38:01.482Z,8.73
2023-04-08T07:40:30.183Z,7.80
2023-04-08T07:42:57.901Z,7.72
2023-04-08T07:45:25.967Z,7.50
2023-04-08T07:47:53.790Z,7.97
2023-04-08T07:50:21.731Z,7.95
2023-04-08T07:52:49.501Z,7.65
2023-04-08T07:55:17.505Z,7.53
2023-04-08T07:57:46.194Z,7.72
2023-04-08T08:00:20.905Z,8.05
2023-04-08T08:02:49.095Z,7.38
2023-04-08T08:05:17.262Z,7.28
2023-04-08T08:07:45.313Z,7.30
2023-04-08T08:10:13.273Z,7.65
2023-04-08T08:12:41.023Z,7.70
2023-04-08T08:15:09.650Z,7.43
2023-04-08T08:17:37.295Z,7.75
2023-04-08T08:20:05.753Z,7.43
2023-04-08T08:22:33.613Z,7.97
2023-04-08T08:25:01.583Z,7.03
2023-04-08T08:27:29.360Z,7.30
2023-04-08T08:29:57.698Z,6.60
2023-04-08T08:32:26.029Z,7.15
2023-04-08T08:34:53.923Z,6.93
2023-04-08T08:37:22.005Z,7.28
2023-04-08T08:39:50.009Z,7.35
2023-04-08T08:42:24.910Z,7.72
2023-04-08T08:44:54.641Z,7.47
2023-04-08T08:47:22.517Z,7.35
2023-04-08T08:49:51.017Z,7.32
2023-04-08T08:52:18.870Z,7.35
2023-04-08T08:54:47.189Z,7.03
2023-04-08T08:57:21.178Z,7.10
2023-04-08T08:59:49.441Z,6.90
2023-04-08T09:02:34.109Z,6.70
2023-04-08T09:05:04.937Z,7.93
2023-04-08T09:07:37.061Z,7.05
2023-04-08T09:10:05.515Z,7.57
2023-04-08T09:12:33.349Z,7.07
2023-04-08T09:15:11.211Z,7.55
2023-04-08T09:17:41.554Z,6.38
2023-04-08T09:20:12.172Z,7.15
2023-04-08T09:22:59.723Z,7.25
2023-04-08T09:25:32.838Z,6.57
2023-04-08T09:28:02.185Z,6.35
2023-04-08T09:30:32.673Z,7.15
2023-04-08T09:33:01.463Z,6.53
2023-04-08T09:35:29.881Z,6.63
2023-04-08T09:37:57.762Z,7.30
2023-04-08T09:40:27.451Z,7.13
2023-04-08T09:42:57.243Z,7.03
2023-04-08T09:45:28.175Z,7.63
2023-04-08T09:48:17.537Z,7.35
2023-04-08T09:50:50.140Z,7.07
2023-04-08T09:53:26.743Z,7.50
2023-04-08T09:55:57.482Z,7.30
2023-04-08T09:58:39.760Z,7.43
2023-04-08T10:01:10.108Z,6.70
2023-04-08T10:03:46.155Z,6.72
2023-04-08T10:06:14.769Z,6.70
2023-04-08T10:08:43.791Z,7.03
2023-04-08T10:11:12.158Z,6.82
2023-04-08T10:13:39.898Z,6.70
2023-04-08T10:16:19.378Z,6.72
2023-04-08T10:18:47.713Z,7.20
2023-04-08T10:21:38.812Z,6.47
2023-04-08T10:24:11.052Z,7.05
2023-04-08T10:26:43.821Z,6.57
2023-04-08T10:29:26.673Z,6.70
2023-04-08T10:31:55.045Z,7.03
2023-04-08T10:34:27.348Z,7.05
2023-04-08T10:36:56.991Z,7.93
2023-04-08T10:39:27.247Z,7.60
2023-04-08T10:41:56.398Z,7.70
2023-04-08T10:44:26.767Z,7.60
2023-04-08T10:46:55.673Z,7.40
2023-04-08T10:49:32.172Z,7.00
2023-04-08T10:52:00.877Z,7.03
2023-04-08T10:54:28.675Z,7.30
2023-04-08T10:56:56.752Z,7.45
2023-04-08T10:59:34.967Z,7.65
2023-04-08T11:02:03.486Z,8.07
2023-04-08T11:04:31.637Z,7.85
2023-04-08T11:06:59.801Z,7.35
2023-04-08T11:09:27.525Z,6.45
2023-04-08T11:11:56.710Z,6.65
2023-04-08T11:14:25.595Z,6.68
2023-04-08T11:16:53.777Z,7.07
2023-04-08T11:19:22.909Z,6.75
2023-04-08T11:21:52.205Z,6.90
2023-04-08T11:24:22.405Z,6.90
2023-04-08T11:26:50.570Z,6.53
2023-04-08T11:29:18.404Z,6.22
2023-04-08T11:31:48.425Z,6.28
2023-04-08T11:34:23.653Z,6.00
2023-04-08T11:36:52.731Z,6.53
2023-04-08T11:39:23.977Z,6.80
2023-04-08T11:41:52.002Z,6.78
2023-04-08T11:44:19.734Z,7.40
2023-04-08T11:46:57.388Z,7.40
2023-04-08T11:49:25.257Z,7.22
2023-04-08T11:52:00.312Z,6.53
2023-04-08T11:54:29.678Z,6.97
2023-04-08T11:56:58.425Z,6.32
2023-04-08T11:59:28.964Z,6.50
2023-04-08T12:01:58.170Z,5.68
2023-04-08T12:04:26.298Z,5.65
2023-04-08T12:06:55.368Z,6.85
2023-04-08T12:09:24.630Z,6.80
2023-04-08T12:11:52.517Z,6.85
2023-04-08T12:14:22.066Z,6.88
2023-04-08T12:16:50.102Z,6.88
2023-04-08T12:19:17.784Z,7.07
2023-04-08T12:21:45.694Z,7.10
2023-04-08T12:24:13.398Z,6.88
2023-04-08T12:26:41.485Z,6.13
2023-04-08T12:29:11.758Z,6.00
2023-04-08T12:31:39.794Z,5.95
2023-04-08T12:34:07.572Z,5.97
2023-04-08T12:36:36.146Z,5.90
2023-04-08T12:39:03.877Z,5.43
2023-04-08T12:41:31.823Z,4.80
2023-04-08T12:43:59.587Z,5.35
2023-04-08T12:46:28.488Z,5.80
2023-04-08T12:49:03.472Z,6.32
2023-04-08T12:51:32.398Z,6.20
2023-04-08T12:54:01.321Z,5.10
2023-04-08T12:56:29.828Z,5.95
2023-04-08T12:58:57.761Z,6.07
2023-04-08T13:01:25.887Z,5.95
2023-04-08T13:03:54.291Z,5.80
2023-04-08T13:06:22.569Z,5.85
2023-04-08T13:08:50.391Z,5.85
2023-04-08T13:11:18.427Z,6.50
2023-04-08T13:13:46.938Z,6.30
2023-04-08T13:16:15.618Z,5.70
2023-04-08T13:18:43.523Z,5.45
2023-04-08T13:21:11.423Z,5.30
2023-04-08T13:23:39.243Z,5.25
2023-04-08T13:26:07.256Z,4.90
2023-04-08T13:28:53.849Z,5.05
2023-04-08T13:31:23.048Z,5.30
2023-04-08T13:33:50.746Z,4.68
2023-04-08T13:36:19.933Z,5.20
2023-04-08T13:38:47.793Z,5.55
2023-04-08T13:41:15.572Z,5.40
2023-04-08T13:43:43.478Z,5.25
2023-04-08T13:46:11.423Z,5.07
2023-04-08T13:48:39.562Z,5.13
2023-04-08T13:51:07.260Z,5.20
2023-04-08T13:53:35.392Z,5.43
2023-04-08T13:56:03.773Z,5.10
2023-04-08T13:58:31.753Z,6.35
2023-04-08T14:00:59.558Z,5.10
2023-04-08T14:03:28.264Z,5.90
2023-04-08T14:05:55.925Z,6.15
2023-04-08T14:08:26.629Z,6.90
2023-04-08T14:10:57.954Z,6.38
2023-04-08T14:13:25.875Z,5.55
2023-04-08T14:15:55.086Z,5.93
2023-04-08T14:18:23.094Z,6.05
2023-04-08T14:20:50.770Z,5.82
2023-04-08T14:23:18.680Z,5.68
2023-04-08T14:25:46.369Z,5.88
2023-04-08T14:28:14.349Z,6.22
2023-04-08T14:30:42.841Z,6.35
2023-04-08T14:33:11.168Z,7.00
2023-04-08T14:35:38.901Z,6.88
2023-04-08T14:38:06.844Z,6.63
2023-04-08T14:40:36.505Z,6.57
2023-04-08T14:43:05.627Z,8.75
2023-04-08T14:45:33.349Z,5.70
2023-04-08T14:48:01.365Z,10.23
2023-04-08T14:50:29.379Z,8.75
2023-04-08T14:52:57.480Z,6.10
2023-04-08T14:55:25.954Z,26.48
2023-04-08T14:57:53.977Z,10.25
2023-04-08T15:00:21.832Z,6.72
2023-04-08T15:02:50.036Z,15.98
2023-04-08T15:05:17.870Z,6.53
2023-04-08T15:07:47.359Z,7.07
2023-04-08T15:10:15.234Z,6.22
2023-04-08T15:12:43.085Z,7.32
2023-04-08T15:15:11.141Z,6.35
2023-04-08T15:17:39.244Z,7.57
2023-04-08T15:20:07.738Z,9.15
2023-04-08T15:22:35.876Z,6.95
2023-04-08T15:25:05.275Z,5.85
2023-04-08T15:27:34.471Z,6.32
2023-04-08T15:30:02.352Z,5.43
2023-04-08T15:32:30.716Z,5.93
2023-04-08T15:34:58.608Z,5.00
2023-04-08T15:37:26.589Z,4.80
2023-04-08T15:39:54.642Z,5.45
2023-04-08T15:42:23.136Z,5.30
2023-04-08T15:44:50.811Z,5.30
2023-04-08T15:47:18.844Z,4.90
2023-04-08T15:49:47.544Z,5.35
2023-04-08T15:52:15.604Z,5.68
2023-04-08T15:54:43.253Z,8.98
2023-04-08T15:57:11.360Z,7.60
2023-04-08T15:59:39.058Z,10.82
2023-04-08T16:02:07.449Z,8.75
2023-04-08T16:04:35.442Z,9.35
2023-04-08T16:07:04.146Z,9.23
2023-04-08T16:09:32.053Z,8.82
2023-04-08T16:12:00.050Z,11.82
2023-04-08T16:14:28.264Z,17.13
2023-04-08T16:16:57.693Z,22.75
2023-04-08T16:19:25.410Z,18.95
2023-04-08T16:21:53.353Z,10.80
2023-04-08T16:24:21.667Z,8.88
2023-04-08T16:26:49.733Z,7.45
2023-04-08T16:29:17.379Z,6.65
2023-04-08T16:31:45.473Z,7.45
2023-04-08T16:34:13.083Z,7.57
2023-04-08T16:36:41.039Z,19.50
2023-04-08T16:39:09.496Z,14.50
2023-04-08T16:41:39.470Z,11.55
2023-04-08T16:44:07.261Z,9.30
2023-04-08T16:46:36.253Z,7.32
2023-04-08T16:49:03.948Z,6.53
2023-04-08T16:51:32.061Z,6.22
2023-04-08T16:53:59.968Z,6.50
2023-04-08T16:56:28.151Z,6.35
2023-04-08T16:58:56.110Z,6.70
2023-04-08T17:01:24.181Z,6.50
2023-04-08T17:03:53.147Z,5.63
2023-04-08T17:06:21.745Z,7.10
2023-04-08T17:08:49.501Z,7.75
2023-04-08T17:11:17.777Z,7.82
2023-04-08T17:13:45.814Z,8.73
2023-04-08T17:16:15.936Z,9.23
2023-04-08T17:18:44.528Z,8.88
2023-04-08T17:21:14.401Z,9.25
2023-04-08T17:23:42.204Z,9.48
2023-04-08T17:26:11.210Z,10.05
2023-04-08T17:28:39.440Z,10.60
2023-04-08T17:31:07.454Z,9.25
2023-04-08T17:33:35.180Z,9.60
2023-04-08T17:36:03.498Z,8.77
2023-04-08T17:38:32.295Z,8.82
2023-04-08T17:41:00.510Z,8.90
2023-04-08T17:43:28.258Z,8.68
2023-04-08T17:46:02.967Z,8.45
2023-04-08T17:48:30.811Z,8.88
2023-04-08T17:51:02.830Z,9.65
2023-04-08T17:53:32.084Z,9.68
2023-04-08T17:56:00.790Z,9.63
2023-04-08T17:58:28.573Z,9.63
2023-04-08T18:00:56.552Z,9.68
2023-04-08T18:03:24.482Z,9.93
2023-04-08T18:05:55.162Z,10.50
2023-04-08T18:08:24.094Z,10.70
2023-04-08T18:10:52.047Z,11.27
2023-04-08T18:13:19.859Z,10.38
2023-04-08T18:15:47.832Z,10.75
2023-04-08T18:18:19.523Z,11.00
2023-04-08T18:20:47.597Z,10.75
2023-04-08T18:23:15.240Z,11.55
2023-04-08T18:25:46.312Z,12.48
2023-04-08T18:28:14.074Z,13.40
2023-04-08T18:30:43.335Z,15.23
2023-04-08T18:33:11.251Z,15.95
2023-04-08T18:35:39.313Z,17.88
2023-04-08T18:38:07.069Z,15.52
2023-04-08T18:40:35.514Z,16.48
2023-04-08T18:43:05.016Z,16.23
2023-04-08T18:45:33.006Z,16.67
2023-04-08T18:48:00.969Z,16.45
2023-04-08T18:50:28.938Z,16.92
2023-04-08T18:52:56.700Z,17.63
2023-04-08T18:55:24.839Z,22.27
2023-04-08T18:57:52.557Z,22.42
2023-04-08T19:00:20.533Z,20.27
2023-04-08T19:02:48.294Z,18.02
2023-04-08T19:05:16.957Z,18.05
2023-04-08T19:07:44.571Z,18.05
2023-04-08T19:10:12.474Z,17.48
2023-04-08T19:12:40.246Z,16.10
2023-04-08T19:15:08.472Z,16.40
2023-04-08T19:17:36.116Z,16.08
2023-04-08T19:20:04.255Z,16.08
2023-04-08T19:22:32.066Z,16.98
2023-04-08T19:25:00.361Z,17.17
2023-04-08T19:27:28.015Z,17.15
2023-04-08T19:29:56.345Z,17.90
2023-04-08T19:32:24.096Z,17.48
2023-04-08T19:34:52.362Z,18.08
2023-04-08T19:37:20.096Z,18.20
2023-04-08T19:39:47.961Z,18.20
2023-04-08T19:42:15.572Z,17.02
2023-04-08T19:44:43.507Z,17.13
2023-04-08T19:47:11.299Z,16.73
2023-04-08T19:49:39.402Z,17.83
2023-04-08T19:52:07.552Z,17.02
2023-04-08T19:54:36.463Z,15.27
2023-04-08T19:57:06.389Z,15.50
2023-04-08T19:59:35.118Z,15.18
2023-04-08T20:02:05.804Z,15.45
2023-04-08T20:04:34.105Z,16.25
2023-04-08T20:07:03.793Z,15.25
2023-04-08T20:09:32.691Z,16.23
2023-04-08T20:12:04.667Z,15.43
2023-04-08T20:14:34.293Z,15.88
2023-04-08T20:17:02.252Z,15.60
2023-04-08T20:19:30.539Z,15.80
2023-04-08T20:21:58.267Z,15.90
2023-04-08T20:24:26.367Z,16.02
2023-04-08T20:26:55.100Z,15.60
2023-04-08T20:29:23.207Z,15.93
2023-04-08T20:31:51.903Z,15.32
2023-04-08T20:34:19.926Z,15.45
2023-04-08T20:36:47.585Z,16.90
2023-04-08T20:39:15.534Z,17.52
2023-04-08T20:41:43.161Z,17.67
2023-04-08T20:44:11.130Z,18.58
2023-04-08T20:46:39.120Z,19.25
2023-04-08T20:49:07.699Z,18.98
2023-04-08T20:51:35.726Z,19.05
2023-04-08T20:54:03.873Z,19.35
2023-04-08T20:56:31.569Z,18.17
2023-04-08T20:59:00.405Z,19.23
2023-04-08T21:01:28.671Z,17.73
2023-04-08T21:03:57.224Z,18.85
2023-04-08T21:06:24.911Z,19.23
2023-04-08T21:08:53.544Z,18.80
2023-04-08T21:11:21.755Z,17.13
2023-04-08T21:13:49.819Z,17.92
2023-04-08T21:16:17.761Z,16.30
2023-04-08T21:18:45.955Z,15.73
2023-04-08T21:21:13.917Z,16.48
2023-04-08T21:23:41.826Z,16.95
2023-04-08T21:26:15.548Z,18.02
2023-04-08T21:31:12.944Z,17.75
2023-04-08T21:33:41.116Z,16.73
2023-04-08T21:36:09.051Z,17.55
2023-04-08T21:38:36.892Z,18.23
2023-04-08T21:41:04.713Z,16.80
2023-04-08T21:43:32.749Z,18.17
2023-04-08T21:46:00.418Z,17.98
2023-04-08T21:48:28.519Z,17.10
2023-04-08T21:50:56.255Z,16.27
2023-04-08T21:53:24.187Z,17.30
2023-04-08T21:55:52.176Z,17.77
2023-04-08T21:58:20.139Z,17.70
2023-04-08T22:00:49.236Z,17.25
2023-04-08T22:03:17.446Z,17.70
2023-04-08T22:05:45.756Z,17.80
2023-04-08T22:08:13.640Z,17.75
2023-04-08T22:10:41.287Z,18.45
2023-04-08T22:13:10.681Z,17.85
2023-04-08T22:15:38.383Z,22.08
2023-04-08T22:18:06.418Z,23.38
2023-04-08T22:20:34.082Z,19.80
2023-04-08T22:23:02.013Z,17.90
2023-04-08T22:25:29.728Z,17.42
2023-04-08T22:27:57.620Z,17.52
2023-04-08T22:30:25.374Z,15.98
2023-04-08T22:32:53.301Z,17.17
2023-04-08T22:35:21.473Z,17.10
2023-04-08T22:37:49.412Z,16.65
2023-04-08T22:40:17.080Z,16.23
2023-04-08T22:42:45.096Z,16.73
2023-04-08T22:45:12.862Z,16.58
2023-04-08T22:47:40.856Z,16.85
2023-04-08T22:50:08.927Z,18.50
2023-04-08T22:52:36.915Z,16.92
2023-04-08T22:55:05.550Z,18.42
2023-04-08T22:57:34.673Z,18.25
2023-04-08T23:00:04.391Z,18.25
2023-04-08T23:02:32.485Z,18.33
2023-04-08T23:05:00.398Z,19.20
2023-04-08T23:07:28.296Z,20.92
2023-04-08T23:09:56.016Z,21.67
2023-04-08T23:12:23.951Z,21.67
2023-04-08T23:14:51.729Z,22.55
2023-04-08T23:17:19.722Z,22.92
2023-04-08T23:19:47.499Z,23.05
2023-04-08T23:22:15.598Z,22.30
2023-04-08T23:24:43.500Z,23.67
2023-04-08T23:27:11.443Z,22.75
2023-04-08T23:29:39.163Z,23.95
2023-04-08T23:32:07.052Z,23.90
2023-04-08T23:34:38.146Z,24.83
2023-04-08T23:37:06.116Z,23.30
2023-04-08T23:39:33.737Z,22.42
2023-04-08T23:42:01.795Z,22.42
2023-04-08T23:44:29.573Z,22.95
2023-04-08T23:46:57.498Z,23.85
2023-04-08T23:49:25.424Z,24.33
2023-04-08T23:51:53.674Z,24.50
2023-04-08T23:54:22.580Z,23.25
2023-04-08T23:56:50.621Z,23.92
2023-04-08T23:59:18.374Z,23.05
